Time;durP1;ratioP1;P1;durP2;ratioP2;P2;SDS_P1;SDS_P2;PMS_P1;PMS_P2;Temp;Humidity;BMP_temperature;BMP_pressure;BME280_temperature;BME280_humidity;BME280_pressure;Samples;Min_cycle;Max_cycle;Signal;HPM_P1;HPM_P2
2022/02/05 00:00:32;;;;;;;2.17;2.00;;;16.10;63.20;;;;;;4957700;28;20061;-18
2022/02/05 00:03:12;;;;;;;1.77;1.67;;;16.10;62.30;;;;;;4955346;28;20047;-19
2022/02/05 00:05:55;;;;;;;1.90;1.80;;;16.10;62.30;;;;;;4955157;28;20051;-19
2022/02/05 00:38:22;;;;;;;0.90;0.90;;;16.00;62.20;;;;;;4941286;28;20055;-18
2022/02/05 00:43:17;;;;;;;1.42;1.33;;;16.00;62.30;;;;;;4941511;28;20071;-18
2022/02/05 00:45:48;;;;;;;1.90;1.80;;;16.00;62.30;;;;;;4958213;28;20058;-19
2022/02/05 00:48:14;;;;;;;1.55;1.38;;;16.00;62.40;;;;;;4960573;28;20043;-19
2022/02/05 00:50:44;;;;;;;1.40;1.30;;;16.00;62.50;;;;;;4960087;28;20194;-18
2022/02/05 00:55:50;;;;;;;1.70;1.60;;;16.10;62.30;;;;;;4972283;28;20058;-18
2022/02/05 00:58:16;;;;;;;;;;;16.00;62.30;;;;;;4960744;28;20039;-18
2022/02/05 01:00:41;;;;;;;1.40;1.30;;;16.00;62.30;;;;;;4959541;28;20426;-18
2022/02/05 01:03:07;;;;;;;1.17;1.17;;;16.00;62.20;;;;;;4942111;28;20047;-18
2022/02/05 01:05:34;;;;;;;1.58;1.33;;;16.00;62.10;;;;;;4940699;28;20143;-18
2022/02/05 01:08:00;;;;;;;1.55;1.45;;;16.00;62.20;;;;;;4940918;28;20044;-18
2022/02/05 01:10:26;;;;;;;1.40;1.30;;;16.00;62.20;;;;;;4942071;28;20409;-18
2022/02/05 01:12:57;;;;;;;1.25;1.15;;;16.00;62.20;;;;;;4959515;28;20519;-18
2022/02/05 01:15:27;;;;;;;1.48;1.38;;;16.00;62.40;;;;;;4960158;28;20134;-18
2022/02/05 01:17:59;;;;;;;1.10;1.10;;;16.00;62.40;;;;;;4959080;28;20473;-18
2022/02/05 01:22:55;;;;;;;1.50;1.40;;;15.90;62.20;;;;;;4968853;28;20181;-18
2022/02/05 01:25:25;;;;;;;1.10;1.10;;;15.90;62.30;;;;;;4975362;28;20051;-18
2022/02/05 01:27:56;;;;;;;1.30;1.20;;;15.90;62.30;;;;;;4959268;28;20042;-18
2022/02/05 01:30:26;;;;;;;1.23;1.13;;;15.90;62.30;;;;;;4958971;28;20051;-18
2022/02/05 01:33:34;;;;;;;1.05;1.05;;;16.00;62.10;;;;;;4958105;28;20058;-18
2022/02/05 01:35:49;;;;;;;1.00;1.00;;;15.90;62.30;;;;;;4958918;28;20062;-18
2022/02/05 01:55:02;;;;;;;1.38;1.27;;;15.90;62.20;;;;;;4966506;28;20130;-18
2022/02/05 01:57:45;;;;;;;1.13;0.90;;;15.90;62.20;;;;;;4973810;28;20050;-18
2022/02/05 02:05:38;;;;;;;1.20;1.20;;;15.80;62.30;;;;;;4958861;28;20050;-18
2022/02/05 02:11:30;;;;;;;1.25;1.25;;;15.90;62.20;;;;;;4958152;28;20050;-18
2022/02/05 02:14:20;;;;;;;0.82;0.82;;;15.90;62.20;;;;;;4956283;28;20393;-18
2022/02/05 02:19:25;;;;;;;1.00;0.90;;;15.90;62.30;;;;;;4958222;28;20503;-18
2022/02/05 02:32:24;;;;;;;0.93;0.93;;;15.90;62.10;;;;;;4958387;28;20408;-18
2022/02/05 02:34:54;;;;;;;1.00;1.00;;;15.80;62.10;;;;;;4939019;28;20039;-18
2022/02/05 02:37:30;;;;;;;0.90;0.90;;;15.80;62.10;;;;;;4943319;28;20046;-18
2022/02/05 02:42:22;;;;;;;0.70;0.70;;;15.80;62.10;;;;;;4958133;28;20047;-18
2022/02/05 02:44:48;;;;;;;0.75;0.75;;;15.80;62.10;;;;;;4957942;28;20059;-18
2022/02/05 02:47:15;;;;;;;0.90;0.90;;;15.80;62.10;;;;;;4957877;28;20159;-18
2022/02/05 02:57:57;;;;;;;0.88;0.88;;;15.80;62.00;;;;;;4938432;28;20053;-18
2022/02/05 03:00:23;;;;;;;0.90;0.90;;;15.80;62.10;;;;;;4939308;28;20405;-18
2022/02/05 03:02:48;;;;;;;0.80;0.80;;;15.80;62.10;;;;;;4938467;28;20111;-18
2022/02/05 03:05:14;;;;;;;0.82;0.82;;;15.80;61.90;;;;;;4939084;28;20067;-18
2022/02/05 03:07:40;;;;;;;0.65;0.65;;;15.80;61.90;;;;;;4938465;28;20119;-18
2022/02/05 03:10:06;;;;;;;0.80;0.80;;;15.80;61.80;;;;;;4938972;28;20043;-18
2022/02/05 03:12:34;;;;;;;1.10;1.10;;;15.80;61.70;;;;;;4938728;28;20052;-18
2022/02/05 03:14:59;;;;;;;0.80;0.80;;;15.80;61.90;;;;;;4938531;28;20091;-18
2022/02/05 03:17:32;;;;;;;0.75;0.75;;;15.80;61.80;;;;;;4938838;28;20508;-18
2022/02/05 03:19:58;;;;;;;0.70;0.70;;;15.80;61.80;;;;;;4938207;28;20044;-18
2022/02/05 03:22:24;;;;;;;0.93;0.93;;;15.80;61.90;;;;;;4949707;28;20039;-18
2022/02/05 03:24:49;;;;;;;0.75;0.75;;;15.80;61.90;;;;;;4965932;28;20051;-19
2022/02/05 03:27:16;;;;;;;0.93;0.93;;;15.80;62.00;;;;;;4956956;28;20043;-22
2022/02/05 03:29:45;;;;;;;0.82;0.77;;;15.80;61.80;;;;;;4957530;28;20134;-19
2022/02/05 03:32:11;;;;;;;0.60;0.60;;;15.80;61.90;;;;;;4958099;28;20106;-19
2022/02/05 03:34:37;;;;;;;0.93;0.90;;;15.80;61.90;;;;;;4956077;28;20047;-18
2022/02/05 03:37:04;;;;;;;0.68;0.68;;;15.80;61.90;;;;;;4953889;28;20051;-19
2022/02/05 03:39:29;;;;;;;0.70;0.70;;;15.80;61.80;;;;;;4956053;28;20043;-19
2022/02/05 03:41:55;;;;;;;0.70;0.70;;;15.70;61.90;;;;;;4954194;28;20043;-19
2022/02/05 03:44:20;;;;;;;1.08;1.00;;;15.80;61.90;;;;;;4954043;28;20043;-18
2022/02/05 03:46:49;;;;;;;0.80;0.80;;;15.70;62.00;;;;;;4955292;28;20054;-19
2022/02/05 03:49:17;;;;;;;0.45;0.45;;;15.80;62.00;;;;;;4962156;28;20400;-18
2022/02/05 03:51:46;;;;;;;1.00;0.90;;;15.80;61.70;;;;;;4967474;28;20092;-19
2022/02/05 03:54:15;;;;;;;0.80;0.80;;;15.80;61.90;;;;;;4950418;28;20398;-18
2022/02/05 03:56:40;;;;;;;0.90;0.70;;;15.80;61.90;;;;;;4975014;28;20054;-20
2022/02/05 03:59:06;;;;;;;0.77;0.73;;;15.70;61.80;;;;;;4954328;28;20050;-18
2022/02/05 04:01:32;;;;;;;0.40;0.40;;;15.70;61.80;;;;;;4955795;28;20134;-18
2022/02/05 04:03:58;;;;;;;0.68;0.68;;;15.80;61.90;;;;;;4960728;28;20054;-18
2022/02/05 04:06:24;;;;;;;0.55;0.55;;;15.70;61.80;;;;;;4965528;28;20134;-18
2022/02/05 04:08:51;;;;;;;1.02;0.70;;;15.70;61.80;;;;;;4955337;28;20035;-18
2022/02/05 04:11:31;;;;;;;0.90;0.65;;;15.70;61.90;;;;;;4959301;28;20043;-18
2022/02/05 04:16:41;;;;;;;0.60;0.60;;;15.70;61.80;;;;;;4962189;28;20114;-18
2022/02/05 04:19:06;;;;;;;0.98;0.85;;;15.70;61.80;;;;;;4969649;28;20043;-18
2022/02/05 04:21:32;;;;;;;0.70;0.70;;;15.70;62.00;;;;;;4938116;28;20052;-18
2022/02/05 04:24:00;;;;;;;0.60;0.60;;;15.70;62.00;;;;;;4962760;28;20152;-18
2022/02/05 04:26:26;;;;;;;0.65;0.65;;;15.70;61.90;;;;;;4974192;28;20046;-18
2022/02/05 04:28:51;;;;;;;0.77;0.77;;;15.70;62.00;;;;;;4961874;28;20097;-18
2022/02/05 04:31:17;;;;;;;0.80;0.77;;;15.70;61.90;;;;;;4967624;28;20407;-18
2022/02/05 04:33:43;;;;;;;0.68;0.68;;;15.70;62.00;;;;;;4975806;28;20042;-19
2022/02/05 04:36:09;;;;;;;0.60;0.60;;;15.70;61.90;;;;;;4942656;28;20504;-18
2022/02/05 04:38:36;;;;;;;0.65;0.65;;;15.70;61.90;;;;;;4944628;28;20047;-18
2022/02/05 04:41:12;;;;;;;0.70;0.70;;;15.70;61.90;;;;;;4951774;28;20043;-19
2022/02/05 05:02:21;;;;;;;0.60;0.60;;;15.70;62.10;;;;;;4937448;28;20107;-19
2022/02/05 05:20:26;;;;;;;0.60;0.60;;;15.60;61.90;;;;;;4954899;28;20061;-19
2022/02/05 05:22:52;;;;;;;0.60;0.60;;;15.60;62.20;;;;;;4968748;28;20078;-18
2022/02/05 05:25:17;;;;;;;0.63;0.63;;;15.60;62.00;;;;;;4956398;28;20050;-19
2022/02/05 05:27:43;;;;;;;0.60;0.60;;;15.60;62.00;;;;;;4950617;28;20047;-19
2022/02/05 05:30:09;;;;;;;0.57;0.57;;;15.60;62.00;;;;;;4940287;28;20047;-19
2022/02/05 05:32:35;;;;;;;0.45;0.43;;;15.60;61.90;;;;;;4955998;28;20424;-19
2022/02/05 05:35:00;;;;;;;0.93;0.93;;;15.60;61.90;;;;;;4949353;28;20047;-19
2022/02/05 05:37:26;;;;;;;0.70;0.70;;;15.60;61.80;;;;;;4952843;28;20058;-19
2022/02/05 05:39:52;;;;;;;0.68;0.65;;;15.60;61.90;;;;;;4950029;28;20039;-22
2022/02/05 05:42:24;;;;;;;0.80;0.80;;;15.60;62.00;;;;;;4955820;28;20666;-19
2022/02/05 05:49:57;;;;;;;0.47;0.47;;;15.60;62.10;;;;;;4956387;28;20444;-19
2022/02/05 05:52:23;;;;;;;0.60;0.57;;;15.60;62.10;;;;;;4939740;28;20055;-19
2022/02/05 05:54:49;;;;;;;0.60;0.55;;;15.60;62.10;;;;;;4961053;28;20042;-19
2022/02/05 05:57:14;;;;;;;0.60;0.60;;;15.60;62.00;;;;;;4959891;28;20055;-18
2022/02/05 05:59:40;;;;;;;0.75;0.75;;;15.60;62.00;;;;;;4956439;28;20058;-19
2022/02/05 06:02:09;;;;;;;0.60;0.60;;;15.60;62.00;;;;;;4957424;28;20149;-19
2022/02/05 06:04:34;;;;;;;0.63;0.57;;;15.50;62.10;;;;;;4956430;28;20078;-19
2022/02/05 06:07:00;;;;;;;0.73;0.63;;;15.60;62.20;;;;;;4957924;28;20039;-19
2022/02/05 06:09:26;;;;;;;0.60;0.60;;;15.50;62.10;;;;;;4959065;28;20292;-19
2022/02/05 06:11:51;;;;;;;0.82;0.82;;;15.50;62.10;;;;;;4940470;28;20061;-19
2022/02/05 06:14:21;;;;;;;0.70;0.70;;;15.60;61.90;;;;;;4939781;28;20515;-19
2022/02/05 06:16:51;;;;;;;0.50;0.50;;;15.50;61.90;;;;;;4939488;28;20062;-19
2022/02/05 06:19:18;;;;;;;0.65;0.60;;;15.50;62.10;;;;;;4947239;28;20524;-18
2022/02/05 06:21:44;;;;;;;0.40;0.40;;;15.50;62.10;;;;;;4950055;28;20043;-19
2022/02/05 06:24:09;;;;;;;0.70;0.70;;;15.50;62.00;;;;;;4969071;28;20047;-19
2022/02/05 06:26:35;;;;;;;0.60;0.60;;;15.50;61.90;;;;;;4958799;28;20111;-19
2022/02/05 06:29:00;;;;;;;0.70;0.70;;;15.50;62.10;;;;;;4958048;28;20036;-19
2022/02/05 06:31:26;;;;;;;0.70;0.70;;;15.50;62.10;;;;;;4958255;28;20496;-19
2022/02/05 06:33:51;;;;;;;0.70;0.70;;;15.50;62.20;;;;;;4955985;28;20122;-19
2022/02/05 06:36:17;;;;;;;0.50;0.50;;;15.50;62.00;;;;;;4956909;28;20051;-19
2022/02/05 06:38:43;;;;;;;0.50;0.50;;;15.50;62.00;;;;;;4956385;28;20094;-19
2022/02/05 06:41:08;;;;;;;0.77;0.60;;;15.50;62.00;;;;;;4954024;28;20035;-19
2022/02/05 06:43:34;;;;;;;0.88;0.68;;;15.50;62.20;;;;;;4957898;28;20036;-19
2022/02/05 06:45:59;;;;;;;0.60;0.57;;;15.50;62.10;;;;;;4955965;28;20039;-19
2022/02/05 06:48:25;;;;;;;0.60;0.60;;;15.50;62.00;;;;;;4955388;28;20046;-19
2022/02/05 06:50:51;;;;;;;0.73;0.73;;;15.50;62.00;;;;;;4957753;28;20039;-19
2022/02/05 06:53:16;;;;;;;0.77;0.77;;;15.50;61.90;;;;;;4956755;28;20504;-19
2022/02/05 06:55:42;;;;;;;0.60;0.57;;;15.50;61.80;;;;;;4958809;28;20114;-19
2022/02/05 06:58:08;;;;;;;0.70;0.70;;;15.50;62.00;;;;;;4953992;28;20130;-19
2022/02/05 07:00:33;;;;;;;1.05;0.70;;;15.50;62.00;;;;;;4949857;28;20480;-19
2022/02/05 07:02:59;;;;;;;0.50;0.50;;;15.50;62.00;;;;;;4943849;28;20040;-18
2022/02/05 07:05:24;;;;;;;0.60;0.50;;;15.50;62.10;;;;;;4939102;28;20040;-19
2022/02/05 07:07:50;;;;;;;0.63;0.63;;;15.50;62.20;;;;;;4940549;28;20032;-19
2022/02/05 07:10:16;;;;;;;0.50;0.50;;;15.50;62.20;;;;;;4947628;28;20162;-19
2022/02/05 07:15:30;;;;;;;0.85;0.63;;;15.50;62.10;;;;;;4938461;28;20047;-19
2022/02/05 07:20:39;;;;;;;0.47;0.47;;;15.40;62.20;;;;;;4938767;28;20054;-19
2022/02/05 07:31:14;;;;;;;0.70;0.70;;;15.50;62.00;;;;;;4937837;28;20107;-19
2022/02/05 07:33:39;;;;;;;0.60;0.60;;;15.50;62.10;;;;;;4937344;28;20053;-19
2022/02/05 07:36:05;;;;;;;0.50;0.47;;;15.50;62.10;;;;;;4937852;28;20047;-18
2022/02/05 07:38:31;;;;;;;0.50;0.43;;;15.50;61.90;;;;;;4938508;28;20127;-19
2022/02/05 07:40:56;;;;;;;0.60;0.60;;;15.40;62.00;;;;;;4938021;28;20071;-18
2022/02/05 07:43:29;;;;;;;0.55;0.55;;;15.40;62.20;;;;;;4938392;28;20051;-19
2022/02/05 07:45:55;;;;;;;0.55;0.55;;;15.40;62.10;;;;;;4937708;28;20047;-20
2022/02/05 07:48:21;;;;;;;0.63;0.57;;;15.40;62.10;;;;;;4938316;28;20047;-18
2022/02/05 07:50:46;;;;;;;0.40;0.40;;;15.40;62.20;;;;;;4938590;28;20055;-18
2022/02/05 07:53:12;;;;;;;0.43;0.40;;;15.40;62.20;;;;;;4937439;28;20050;-18
2022/02/05 07:55:37;;;;;;;0.70;0.70;;;15.40;62.10;;;;;;4943489;28;20055;-19
2022/02/05 07:58:03;;;;;;;0.47;0.47;;;15.30;62.10;;;;;;4937554;28;20068;-19
2022/02/05 08:00:30;;;;;;;0.70;0.60;;;15.30;62.20;;;;;;4938096;28;20058;-19
2022/02/05 08:02:58;;;;;;;0.70;0.70;;;15.40;62.10;;;;;;4939757;28;20047;-18
2022/02/05 08:05:24;;;;;;;0.50;0.50;;;15.40;62.10;;;;;;4946431;28;20048;-19
2022/02/05 08:07:51;;;;;;;0.40;0.40;;;15.40;62.10;;;;;;4938065;28;20564;-19
2022/02/05 08:10:19;;;;;;;0.50;0.50;;;15.40;62.20;;;;;;4942337;28;20051;-19
2022/02/05 08:12:50;;;;;;;0.60;0.60;;;15.40;62.10;;;;;;4951280;28;20106;-19
2022/02/05 08:15:22;;;;;;;0.70;0.63;;;15.40;62.10;;;;;;4945572;28;20056;-19
2022/02/05 08:17:47;;;;;;;0.50;0.50;;;15.30;62.40;;;;;;4957282;28;20055;-19
2022/02/05 08:20:13;;;;;;;0.43;0.40;;;15.30;62.20;;;;;;4956613;28;20054;-19
2022/02/05 08:22:39;;;;;;;0.55;0.55;;;15.30;62.20;;;;;;4964421;28;20039;-19
2022/02/05 08:25:04;;;;;;;0.65;0.63;;;15.30;62.30;;;;;;4619849;28;9999895;-18
2022/02/05 08:27:30;;;;;;;0.45;0.45;;;15.30;62.60;;;;;;4945798;28;20105;-19
2022/02/05 08:29:59;;;;;;;0.52;0.52;;;15.30;62.10;;;;;;4949092;28;20504;-19
2022/02/05 08:32:26;;;;;;;0.45;0.45;;;15.30;62.00;;;;;;4940817;28;20048;-18
2022/02/05 08:34:52;;;;;;;0.30;0.30;;;15.40;61.70;;;;;;4946695;28;20050;-19
2022/02/05 08:37:18;;;;;;;0.40;0.40;;;15.30;61.80;;;;;;4952723;28;20051;-19
2022/02/05 08:39:43;;;;;;;2.70;2.20;;;15.40;61.80;;;;;;4952800;28;20051;-19
2022/02/05 08:42:09;;;;;;;3.65;2.90;;;15.40;61.70;;;;;;4954292;28;20039;-18
2022/02/05 08:44:35;;;;;;;5.47;3.55;;;15.40;61.80;;;;;;4956458;28;20054;-19
2022/02/05 08:47:01;;;;;;;6.28;4.93;;;15.40;61.70;;;;;;4956335;28;20495;-19
2022/02/05 08:49:28;;;;;;;6.95;5.00;;;15.40;61.90;;;;;;4956742;28;20047;-19
2022/02/05 08:51:57;;;;;;;11.02;6.22;;;15.40;61.90;;;;;;4947186;28;20130;-19
2022/02/05 08:54:23;;;;;;;8.80;6.10;;;15.40;61.90;;;;;;4957087;28;20087;-19
2022/02/05 08:56:52;;;;;;;9.77;7.05;;;15.40;61.90;;;;;;4952069;28;20059;-19
2022/02/05 08:59:18;;;;;;;18.88;10.20;;;15.40;62.70;;;;;;4956149;28;20873;-19
2022/02/05 09:01:53;;;;;;;17.38;10.95;;;15.40;62.20;;;;;;4956232;28;20625;-19
2022/02/05 09:06:48;;;;;;;19.92;11.68;;;15.40;62.10;;;;;;4955651;28;20074;-19
2022/02/05 09:14:36;;;;;;;18.33;10.70;;;15.40;61.90;;;;;;4927697;28;20123;-19
2022/02/05 09:17:01;;;;;;;20.20;11.73;;;15.40;62.10;;;;;;4947487;28;20063;-19
2022/02/05 09:19:28;;;;;;;20.85;12.05;;;15.40;62.00;;;;;;4950431;28;20074;-19
2022/02/05 09:21:54;;;;;;;18.55;11.50;;;15.40;62.20;;;;;;4950596;28;20055;-19
2022/02/05 09:24:20;;;;;;;21.63;12.32;;;15.40;61.90;;;;;;4946403;28;20531;-19
2022/02/05 09:26:49;;;;;;;17.15;11.43;;;15.50;61.90;;;;;;4936212;28;20051;-19
2022/02/05 09:29:20;;;;;;;21.17;12.68;;;15.50;61.80;;;;;;4927574;28;20047;-19
2022/02/05 09:31:49;;;;;;;21.52;12.38;;;15.50;61.90;;;;;;4936973;28;20154;-19
2022/02/05 09:34:15;;;;;;;20.50;13.07;;;15.50;62.00;;;;;;4929745;28;20047;-19
2022/02/05 09:36:41;;;;;;;20.15;13.82;;;15.50;62.00;;;;;;4935136;29;20051;-19
2022/02/05 09:39:10;;;;;;;22.05;13.48;;;15.50;62.20;;;;;;4936252;28;20126;-19
2022/02/05 09:41:36;;;;;;;21.45;13.80;;;15.60;62.10;;;;;;4931613;28;20059;-19
2022/02/05 09:44:03;;;;;;;19.85;12.32;;;15.60;61.90;;;;;;4931695;28;20051;-19
2022/02/05 09:46:28;;;;;;;20.75;12.82;;;15.60;61.90;;;;;;4939391;28;20141;-19
2022/02/05 09:48:54;;;;;;;19.23;12.10;;;15.70;62.20;;;;;;4953739;28;20134;-19
2022/02/05 09:51:32;;;;;;;18.17;12.25;;;15.70;62.60;;;;;;4953349;28;20046;-19
2022/02/05 09:53:58;;;;;;;17.48;12.00;;;15.70;62.90;;;;;;4958099;28;20067;-19
2022/02/05 09:56:24;;;;;;;18.38;11.23;;;15.70;62.90;;;;;;4952475;28;20473;-19
2022/02/05 09:58:50;;;;;;;16.08;11.23;;;15.80;62.60;;;;;;4957895;28;20039;-19
2022/02/05 10:01:20;;;;;;;16.02;11.20;;;15.80;62.50;;;;;;4960571;28;20074;-19
2022/02/05 10:03:47;;;;;;;18.35;11.20;;;15.80;62.30;;;;;;4971972;28;20046;-19
2022/02/05 10:06:19;;;;;;;19.20;11.30;;;15.80;62.20;;;;;;4978019;28;20054;-19
2022/02/05 10:09:00;;;;;;;18.40;10.95;;;15.90;62.20;;;;;;4964161;28;20054;-19
2022/02/05 10:11:29;;;;;;;19.33;10.35;;;15.80;62.10;;;;;;4939220;28;20052;-19
2022/02/05 10:13:56;;;;;;;15.50;11.15;;;15.80;62.20;;;;;;4939715;28;20039;-19
2022/02/05 10:16:29;;;;;;;18.13;10.57;;;15.80;62.20;;;;;;4939132;28;20066;-19
2022/02/05 10:18:57;;;;;;;14.10;9.53;;;15.90;62.30;;;;;;4939878;28;20043;-19
2022/02/05 10:21:29;;;;;;;14.77;9.95;;;15.90;62.20;;;;;;4951922;28;20123;-19
2022/02/05 10:23:59;;;;;;;14.52;9.90;;;15.90;62.20;;;;;;4948270;28;20051;-19
2022/02/05 10:26:31;;;;;;;13.80;9.15;;;15.90;62.00;;;;;;4939038;28;20050;-19
2022/02/05 10:28:59;;;;;;;12.23;8.43;;;16.00;61.90;;;;;;4951896;28;20070;-19
2022/02/05 10:31:25;;;;;;;13.25;9.30;;;16.00;62.10;;;;;;4955067;28;20416;-19
2022/02/05 10:34:06;;;;;;;11.27;8.38;;;16.00;62.10;;;;;;4958284;28;20043;-19
2022/02/05 10:36:32;;;;;;;11.18;8.32;;;16.00;62.00;;;;;;4953001;29;20036;-19
2022/02/05 10:44:35;;;;;;;11.77;8.65;;;16.30;61.80;;;;;;4938943;28;20136;-19
2022/02/05 10:47:00;;;;;;;9.95;8.38;;;16.20;61.70;;;;;;4924166;29;20187;-19
2022/02/05 10:50:01;;;;;;;11.55;8.52;;;16.20;61.70;;;;;;4919781;29;20076;-19
2022/02/05 10:52:34;;;;;;;10.98;7.95;;;16.30;61.70;;;;;;4936285;28;20051;-19
2022/02/05 10:55:21;;;;;;;9.70;7.57;;;16.30;61.70;;;;;;4961783;28;20035;-19
2022/02/05 11:05:57;;;;;;;8.15;7.13;;;16.20;61.90;;;;;;4939177;29;20520;-19
2022/02/05 11:08:23;;;;;;;8.27;6.75;;;16.30;61.70;;;;;;4938324;28;20076;-19
2022/02/05 11:16:04;;;;;;;9.55;6.97;;;16.30;61.90;;;;;;4938881;28;20044;-19
2022/02/05 11:18:43;;;;;;;8.05;6.78;;;16.30;61.80;;;;;;4937930;28;20099;-19
2022/02/05 11:21:09;;;;;;;8.35;6.45;;;16.30;61.80;;;;;;4938230;28;20095;-19
2022/02/05 11:23:34;;;;;;;8.95;6.60;;;16.30;61.80;;;;;;4938788;28;20052;-19
2022/02/05 11:26:00;;;;;;;8.25;6.63;;;16.40;61.80;;;;;;4906798;29;20044;-19
2022/02/05 11:28:41;;;;;;;9.35;6.93;;;16.40;61.70;;;;;;4937260;28;20431;-19
2022/02/05 11:31:32;;;;;;;8.60;6.13;;;16.40;61.70;;;;;;4937863;28;20056;-20
2022/02/05 11:34:26;;;;;;;8.45;5.93;;;16.40;61.80;;;;;;4943000;28;20504;-19
2022/02/05 11:37:04;;;;;;;6.38;5.68;;;16.40;61.70;;;;;;4944107;28;20039;-19
2022/02/05 11:39:52;;;;;;;7.97;6.55;;;16.40;61.80;;;;;;4602902;28;9999860;-19
2022/02/05 11:42:39;;;;;;;5.82;5.22;;;16.40;61.80;;;;;;4952724;28;20134;-19
2022/02/05 11:45:24;;;;;;;6.85;6.03;;;16.40;61.80;;;;;;4946765;28;20047;-19
2022/02/05 11:47:50;;;;;;;8.32;5.80;;;16.50;61.80;;;;;;4939529;28;20047;-19
2022/02/05 11:50:20;;;;;;;7.45;5.53;;;16.50;61.70;;;;;;4948218;28;20424;-20
2022/02/05 11:52:46;;;;;;;8.10;5.78;;;16.50;61.70;;;;;;4952004;28;20114;-19
2022/02/05 11:55:13;;;;;;;5.95;5.20;;;16.50;61.60;;;;;;4952549;28;20078;-19
2022/02/05 11:57:42;;;;;;;6.07;5.20;;;16.50;61.60;;;;;;4951604;28;20043;-19
2022/02/05 12:00:09;;;;;;;5.72;5.13;;;16.60;61.50;;;;;;4953168;28;20051;-20
2022/02/05 12:02:40;;;;;;;5.55;4.95;;;16.60;61.50;;;;;;4953590;28;20449;-19
2022/02/05 12:05:13;;;;;;;5.30;4.78;;;16.60;61.60;;;;;;4945969;28;20090;-19
2022/02/05 12:08:28;;;;;;;7.40;4.95;;;16.60;61.60;;;;;;4953185;28;20130;-19
2022/02/05 12:10:56;;;;;;;4.55;4.15;;;16.50;61.70;;;;;;4923066;29;20251;-19
2022/02/05 12:13:37;;;;;;;5.63;4.15;;;16.50;61.70;;;;;;4952446;28;20186;-19
2022/02/05 12:16:05;;;;;;;5.40;4.90;;;16.50;61.80;;;;;;4954520;28;20051;-19
2022/02/05 12:18:33;;;;;;;4.63;4.22;;;16.50;61.70;;;;;;4956942;28;20082;-19
2022/02/05 12:26:25;;;;;;;4.47;4.07;;;16.50;61.90;;;;;;4955419;28;20070;-19
2022/02/05 12:28:57;;;;;;;4.75;4.20;;;16.40;61.80;;;;;;4951354;28;20694;-19
2022/02/05 12:31:25;;;;;;;5.25;4.10;;;16.40;61.80;;;;;;4956831;28;20102;-19
2022/02/05 12:33:55;;;;;;;4.50;4.10;;;16.50;61.80;;;;;;4945600;28;20035;-19
2022/02/05 12:36:28;;;;;;;4.50;4.10;;;16.40;61.80;;;;;;4948109;28;20043;-19
2022/02/05 12:38:55;;;;;;;4.10;3.70;;;16.40;61.70;;;;;;4954678;28;20047;-19
2022/02/05 12:41:25;;;;;;;4.32;3.92;;;16.40;61.80;;;;;;4952887;28;20047;-19
2022/02/05 12:43:54;;;;;;;3.97;3.58;;;16.40;61.90;;;;;;4955667;28;20067;-19
2022/02/05 12:46:27;;;;;;;4.13;3.72;;;16.40;61.60;;;;;;4938501;28;20458;-19
2022/02/05 12:48:58;;;;;;;4.60;4.07;;;16.40;61.90;;;;;;4947178;28;20062;-19
2022/02/05 12:51:24;;;;;;;5.72;3.95;;;16.40;61.90;;;;;;4955991;28;20046;-19
2022/02/05 12:53:50;;;;;;;4.30;3.78;;;16.40;61.70;;;;;;4949694;28;20138;-19
2022/02/05 12:56:17;;;;;;;3.60;3.30;;;16.40;61.90;;;;;;4947989;28;20137;-19
2022/02/05 12:58:56;;;;;;;3.60;3.30;;;16.50;61.90;;;;;;4944893;28;20032;-19
2022/02/05 13:01:25;;;;;;;3.13;2.83;;;16.40;61.80;;;;;;4942958;28;20095;-19
2022/02/05 13:03:51;;;;;;;4.10;2.88;;;16.40;62.10;;;;;;4941736;29;20079;-19
2022/02/05 13:06:20;;;;;;;2.90;2.60;;;16.40;62.00;;;;;;4938194;28;20063;-19
2022/02/05 13:08:49;;;;;;;3.05;2.85;;;16.40;61.70;;;;;;4938592;28;20052;-19
2022/02/05 13:11:26;;;;;;;2.90;2.70;;;16.40;61.60;;;;;;4938447;28;20055;-19
2022/02/05 13:13:53;;;;;;;3.90;3.42;;;16.40;62.20;;;;;;4939299;28;20086;-19
2022/02/05 13:16:20;;;;;;;3.50;2.58;;;16.40;61.30;;;;;;4938620;28;20071;-19
2022/02/05 13:19:02;;;;;;;3.13;2.92;;;16.40;61.50;;;;;;4948465;28;20088;-19
2022/02/05 13:27:11;;;;;;;3.40;3.10;;;16.50;61.30;;;;;;4951519;28;20046;-19
2022/02/05 13:29:55;;;;;;;3.40;3.10;;;16.40;61.30;;;;;;4940167;28;20044;-19
2022/02/05 13:35:05;;;;;;;2.90;2.67;;;16.50;61.40;;;;;;4957711;28;20061;-19
2022/02/05 13:37:45;;;;;;;2.67;2.47;;;16.50;61.30;;;;;;4959130;28;20077;-19
2022/02/05 13:40:11;;;;;;;3.58;2.75;;;16.50;61.40;;;;;;4940812;28;20043;-19
2022/02/05 13:42:42;;;;;;;2.90;2.70;;;16.50;61.40;;;;;;4945198;28;20113;-19
2022/02/05 13:45:18;;;;;;;2.42;2.22;;;16.50;61.20;;;;;;4595635;28;10000644;-19
2022/02/05 13:47:43;;;;;;;2.95;2.65;;;16.50;61.40;;;;;;4955266;28;20523;-20
2022/02/05 13:50:22;;;;;;;2.80;2.47;;;16.50;61.70;;;;;;4955608;28;20733;-19
2022/02/05 13:53:13;;;;;;;2.33;2.13;;;16.50;61.40;;;;;;4944074;28;20463;-19
2022/02/05 13:55:44;;;;;;;2.47;2.28;;;16.50;61.40;;;;;;4966032;28;20054;-19
2022/02/05 13:58:16;;;;;;;3.08;2.88;;;16.50;61.70;;;;;;4947000;28;20126;-19
2022/02/05 14:00:47;;;;;;;2.42;2.22;;;16.50;61.60;;;;;;4954989;28;20051;-19
2022/02/05 14:03:14;;;;;;;2.15;2.05;;;16.50;61.60;;;;;;4954423;28;20043;-19
2022/02/05 14:05:52;;;;;;;2.80;2.60;;;16.50;61.70;;;;;;4940805;28;20105;-19
2022/02/05 14:08:28;;;;;;;2.15;1.95;;;16.50;61.70;;;;;;4959925;28;20054;-19
2022/02/05 14:10:59;;;;;;;2.55;2.35;;;16.40;61.60;;;;;;4955589;28;20043;-19
2022/02/05 14:13:25;;;;;;;3.30;2.38;;;16.40;61.70;;;;;;4960131;28;20055;-19
2022/02/05 14:15:59;;;;;;;2.30;2.10;;;16.50;61.80;;;;;;4960854;28;20058;-19
2022/02/05 14:18:25;;;;;;;2.03;1.92;;;16.50;61.60;;;;;;4952090;28;20062;-19
2022/02/05 14:21:02;;;;;;;2.58;2.22;;;16.40;61.50;;;;;;4938675;29;20044;-19
2022/02/05 14:23:29;;;;;;;2.00;1.80;;;16.50;61.40;;;;;;4938822;28;20544;-19
2022/02/05 14:26:12;;;;;;;1.90;1.80;;;16.40;61.00;;;;;;4939863;28;20523;-19
2022/02/05 14:28:45;;;;;;;1.95;1.67;;;16.50;61.00;;;;;;4938581;28;20055;-19
2022/02/05 14:31:27;;;;;;;2.25;2.00;;;16.50;61.10;;;;;;4938446;28;20412;-19
2022/02/05 14:42:04;;;;;;;1.90;1.75;;;16.40;61.20;;;;;;4956818;28;20151;-19
2022/02/05 14:44:30;;;;;;;2.30;2.00;;;16.40;61.80;;;;;;4938464;28;20043;-19
2022/02/05 14:46:56;;;;;;;1.90;1.80;;;16.40;61.10;;;;;;4954061;28;20046;-19
2022/02/05 14:49:21;;;;;;;2.83;2.13;;;16.40;61.20;;;;;;4957572;28;20074;-19
2022/02/05 14:51:47;;;;;;;1.77;1.67;;;16.40;61.10;;;;;;4954105;28;20095;-19
2022/02/05 14:54:13;;;;;;;1.80;1.70;;;16.40;61.00;;;;;;4958314;28;20039;-19
2022/02/05 14:56:38;;;;;;;2.40;2.20;;;16.40;60.90;;;;;;4957317;28;20527;-19
2022/02/05 14:59:04;;;;;;;1.90;1.58;;;16.30;61.90;;;;;;4946849;28;20043;-19
2022/02/05 15:01:30;;;;;;;2.17;2.00;;;16.30;61.30;;;;;;4938470;28;20409;-19
2022/02/05 15:03:57;;;;;;;3.30;1.70;;;16.30;61.30;;;;;;4939096;29;20040;-19
2022/02/05 15:06:26;;;;;;;1.70;1.60;;;16.30;61.30;;;;;;4938480;28;20098;-19
2022/02/05 15:08:53;;;;;;;1.75;1.60;;;16.30;61.30;;;;;;4951888;28;20056;-19
2022/02/05 15:11:19;;;;;;;1.95;1.85;;;16.30;62.10;;;;;;4938430;28;20043;-19
2022/02/05 15:13:44;;;;;;;1.77;1.67;;;16.30;61.30;;;;;;4938995;29;20051;-19
2022/02/05 15:16:12;;;;;;;1.65;1.55;;;16.30;61.30;;;;;;4938252;28;20043;-18
2022/02/05 15:18:41;;;;;;;1.77;1.67;;;16.30;61.40;;;;;;4938198;28;20047;-19
2022/02/05 15:21:07;;;;;;;1.70;1.60;;;16.30;61.30;;;;;;4938499;28;20091;-19
2022/02/05 15:23:32;;;;;;;2.25;2.05;;;16.30;61.30;;;;;;4938150;28;20052;-19
2022/02/05 15:26:02;;;;;;;1.98;1.88;;;16.30;61.30;;;;;;4938697;29;20047;-19
2022/02/05 15:28:27;;;;;;;1.90;1.80;;;16.30;61.20;;;;;;4937861;28;20044;-19
2022/02/05 15:30:53;;;;;;;1.50;1.40;;;16.30;61.20;;;;;;4938707;28;20046;-18
2022/02/05 15:33:21;;;;;;;1.92;1.83;;;16.40;61.20;;;;;;4938576;28;20460;-18
2022/02/05 15:35:51;;;;;;;1.90;1.70;;;16.30;61.30;;;;;;4938007;28;20524;-19
2022/02/05 15:38:24;;;;;;;1.60;1.50;;;16.30;61.30;;;;;;4957575;28;20089;-19
2022/02/05 15:43:52;;;;;;;2.00;1.57;;;16.30;61.40;;;;;;4954508;28;20423;-19
2022/02/05 15:46:18;;;;;;;1.30;1.20;;;16.20;61.20;;;;;;4938380;28;20640;-19
2022/02/05 15:48:43;;;;;;;1.40;1.30;;;16.30;61.30;;;;;;4937410;28;20476;-18
2022/02/05 15:51:09;;;;;;;2.08;1.40;;;16.20;61.30;;;;;;4938047;29;20066;-18
2022/02/05 15:53:40;;;;;;;1.60;1.50;;;16.20;61.30;;;;;;4939429;28;20049;-18
2022/02/05 15:56:10;;;;;;;1.30;1.20;;;16.20;61.30;;;;;;4958188;28;20052;-19
2022/02/05 15:58:42;;;;;;;1.58;1.45;;;16.20;61.30;;;;;;4936023;28;20051;-18
2022/02/05 16:01:07;;;;;;;1.65;1.50;;;16.20;61.30;;;;;;4938038;28;20049;-19
2022/02/05 16:03:33;;;;;;;2.05;1.10;;;16.20;61.20;;;;;;4937604;28;20052;-18
2022/02/05 16:06:00;;;;;;;1.17;1.08;;;16.20;61.30;;;;;;4938296;29;20114;-19
2022/02/05 16:08:25;;;;;;;1.30;1.20;;;16.20;61.40;;;;;;4937270;28;20142;-19